createdAt,value
2018-04-15T00:00:29.717Z,32.83
2018-04-15T00:01:32.982Z,33.05
2018-04-15T00:02:36.244Z,29.48
2018-04-15T00:03:38.742Z,31.60
2018-04-15T00:04:41.277Z,30.67
2018-04-15T00:05:43.794Z,30.25
2018-04-15T00:06:47.057Z,32.15
2018-04-15T00:07:49.575Z,31.73
2018-04-15T00:08:52.071Z,33.10
2018-04-15T00:09:54.594Z,31.60
2018-04-15T00:10:57.123Z,32.95
2018-04-15T00:11:59.620Z,31.70
2018-04-15T00:13:02.118Z,30.10
2018-04-15T00:14:05.393Z,31.70
2018-04-15T00:15:08.660Z,31.90
2018-04-15T00:16:11.172Z,32.28
2018-04-15T00:17:13.697Z,31.77
2018-04-15T00:18:16.184Z,32.90
2018-04-15T00:19:18.687Z,32.17
2018-04-15T00:20:21.192Z,31.73
2018-04-15T00:21:23.716Z,32.22
2018-04-15T00:22:27.020Z,32.20
2018-04-15T00:23:29.521Z,32.78
2018-04-15T00:24:32.034Z,33.08
2018-04-15T00:25:34.540Z,30.95
2018-04-15T00:26:37.040Z,33.67
2018-04-15T00:27:39.537Z,33.55
2018-04-15T00:28:42.034Z,31.95
2018-04-15T00:29:44.528Z,32.35
2018-04-15T00:30:47.025Z,31.55
2018-04-15T00:31:49.521Z,31.55
2018-04-15T00:32:52.028Z,31.30
2018-04-15T00:33:54.756Z,30.85
2018-04-15T00:34:57.265Z,31.48
2018-04-15T00:35:59.799Z,32.90
2018-04-15T00:37:02.300Z,33.80
2018-04-15T00:38:05.583Z,31.90
2018-04-15T00:39:08.829Z,33.40
2018-04-15T00:40:11.334Z,31.75
2018-04-15T00:41:14.653Z,32.97
2018-04-15T00:42:17.154Z,34.28
2018-04-15T00:43:19.666Z,34.60
2018-04-15T00:44:22.936Z,34.63
2018-04-15T00:45:25.437Z,30.85
2018-04-15T00:46:27.955Z,34.50
2018-04-15T00:47:30.468Z,32.17
2018-04-15T00:48:32.969Z,31.70
2018-04-15T00:49:35.478Z,33.58
2018-04-15T00:50:37.996Z,33.70
2018-04-15T00:51:40.492Z,33.72
2018-04-15T00:52:42.997Z,35.15
2018-04-15T00:53:57.299Z,31.55
2018-04-15T00:54:59.813Z,32.50
2018-04-15T00:56:02.347Z,33.05
2018-04-15T00:57:04.845Z,33.42
2018-04-15T00:58:08.840Z,30.92
2018-04-15T00:59:11.359Z,31.92
2018-04-15T01:00:14.656Z,30.60
2018-04-15T01:01:17.171Z,36.45
2018-04-15T01:02:19.665Z,32.47
2018-04-15T01:03:22.184Z,32.38
2018-04-15T01:04:24.696Z,34.42
2018-04-15T01:05:27.977Z,33.30
2018-04-15T01:06:30.499Z,33.63
2018-04-15T01:07:33.451Z,32.15
2018-04-15T01:08:36.724Z,31.98
2018-04-15T01:09:39.235Z,32.67
2018-04-15T01:10:41.734Z,32.42
2018-04-15T01:11:44.244Z,33.25
2018-04-15T01:12:46.750Z,35.38
2018-04-15T01:13:49.248Z,31.83
2018-04-15T01:14:51.739Z,32.92
2018-04-15T01:15:54.248Z,32.47
2018-04-15T01:16:56.777Z,32.38
2018-04-15T01:17:59.273Z,32.65
2018-04-15T01:19:01.773Z,32.30
2018-04-15T01:20:04.272Z,31.73
2018-04-15T01:21:06.762Z,35.88
2018-04-15T01:22:10.812Z,32.33
2018-04-15T01:23:13.332Z,32.05
2018-04-15T01:24:15.822Z,31.90
2018-04-15T01:25:18.321Z,32.75
2018-04-15T01:26:20.816Z,33.97
2018-04-15T01:27:23.347Z,33.40
2018-04-15T01:28:26.639Z,32.25
2018-04-15T01:29:29.910Z,33.10
2018-04-15T01:30:32.432Z,32.97
2018-04-15T01:31:35.228Z,33.38
2018-04-15T01:32:37.739Z,32.40
2018-04-15T01:33:40.999Z,32.78
2018-04-15T01:34:43.516Z,32.25
2018-04-15T01:35:46.010Z,33.85
2018-04-15T01:36:48.514Z,36.40
2018-04-15T01:37:51.028Z,34.63
2018-04-15T01:38:53.545Z,32.35
2018-04-15T01:39:56.050Z,34.90
2018-04-15T01:40:59.298Z,34.75
2018-04-15T01:42:01.814Z,33.85
2018-04-15T01:43:05.092Z,34.40
2018-04-15T01:44:08.355Z,34.50
2018-04-15T01:45:10.917Z,34.25
2018-04-15T01:46:13.412Z,34.85
2018-04-15T01:47:15.917Z,34.45
2018-04-15T01:48:18.437Z,35.75
2018-04-15T01:49:21.165Z,35.80
2018-04-15T01:50:23.680Z,37.38
2018-04-15T01:51:26.169Z,36.20
2018-04-15T01:52:29.434Z,35.13
2018-04-15T01:53:31.949Z,34.40
2018-04-15T01:54:35.215Z,35.60
2018-04-15T01:55:37.719Z,34.40
2018-04-15T01:56:40.207Z,34.65
2018-04-15T01:57:42.707Z,37.15
2018-04-15T01:58:45.228Z,35.50
2018-04-15T01:59:47.720Z,37.70
2018-04-15T02:00:50.201Z,37.83
2018-04-15T02:01:52.709Z,37.92
2018-04-15T02:02:55.237Z,36.08
2018-04-15T02:03:57.750Z,38.47
2018-04-15T02:05:00.246Z,36.95
2018-04-15T02:06:02.733Z,36.78
2018-04-15T02:07:05.238Z,38.38
2018-04-15T02:08:07.766Z,39.13
2018-04-15T02:09:10.263Z,38.75
2018-04-15T02:10:12.757Z,36.17
2018-04-15T02:11:16.042Z,37.20
2018-04-15T02:12:18.539Z,42.08
2018-04-15T02:13:21.811Z,39.75
2018-04-15T02:14:24.329Z,37.75
2018-04-15T02:15:26.842Z,39.90
2018-04-15T02:16:29.339Z,38.33
2018-04-15T02:17:31.869Z,39.20
2018-04-15T02:18:34.390Z,40.20
2018-04-15T02:19:37.659Z,41.30
2018-04-15T02:20:40.925Z,39.17
2018-04-15T02:21:43.439Z,41.90
2018-04-15T02:22:45.935Z,38.70
2018-04-15T02:23:48.442Z,40.80
2018-04-15T02:24:50.935Z,41.20
2018-04-15T02:25:54.205Z,39.75
2018-04-15T02:26:56.745Z,40.17
2018-04-15T02:27:59.248Z,40.42
2018-04-15T02:29:01.765Z,41.85
2018-04-15T02:30:04.276Z,39.72
2018-04-15T02:31:06.795Z,40.85
2018-04-15T02:32:09.301Z,40.30
2018-04-15T02:33:11.876Z,40.92
2018-04-15T02:34:14.392Z,40.65
2018-04-15T02:35:16.920Z,41.15
2018-04-15T02:36:19.438Z,42.70
2018-04-15T02:37:21.933Z,40.95
2018-04-15T02:38:24.494Z,41.00
2018-04-15T02:39:27.017Z,42.65
2018-04-15T02:40:30.270Z,40.17
2018-04-15T02:41:32.797Z,41.45
2018-04-15T02:42:36.063Z,40.10
2018-04-15T02:43:38.560Z,40.45
2018-04-15T02:44:41.845Z,40.30
2018-04-15T02:45:45.115Z,40.92
2018-04-15T02:46:47.612Z,38.97
2018-04-15T02:47:50.884Z,41.10
2018-04-15T02:48:54.181Z,41.17
2018-04-15T02:49:57.457Z,40.95
2018-04-15T02:50:59.956Z,40.83
2018-04-15T02:52:02.448Z,43.13
2018-04-15T02:53:04.938Z,39.10
2018-04-15T02:54:07.444Z,40.65
2018-04-15T02:55:10.764Z,39.88
2018-04-15T02:56:13.260Z,43.30
2018-04-15T02:57:15.756Z,41.37
2018-04-15T02:58:18.265Z,41.03
2018-04-15T02:59:20.757Z,41.78
2018-04-15T03:00:23.265Z,44.67
2018-04-15T03:01:25.790Z,41.13
2018-04-15T03:02:28.284Z,41.53
2018-04-15T03:03:30.803Z,43.00
2018-04-15T03:04:34.053Z,41.97
2018-04-15T03:05:36.594Z,44.03
2018-04-15T03:06:39.108Z,41.30
2018-04-15T03:07:41.607Z,43.70
2018-04-15T03:08:44.877Z,41.97
2018-04-15T03:09:48.163Z,42.30
2018-04-15T03:10:50.662Z,43.05
2018-04-15T03:11:53.155Z,42.65
2018-04-15T03:12:55.664Z,41.33
2018-04-15T03:13:58.160Z,43.70
2018-04-15T03:15:01.445Z,43.30
2018-04-15T03:16:04.756Z,42.08
2018-04-15T03:17:07.984Z,43.55
2018-04-15T03:18:10.496Z,44.30
2018-04-15T03:19:13.758Z,45.08
2018-04-15T03:20:16.283Z,42.40
2018-04-15T03:21:18.798Z,41.42
2018-04-15T03:22:21.297Z,43.13
2018-04-15T03:23:24.562Z,43.17
2018-04-15T03:24:27.070Z,43.33
2018-04-15T03:25:29.577Z,42.95
2018-04-15T03:26:32.096Z,41.35
2018-04-15T03:27:35.351Z,41.65
2018-04-15T03:28:38.613Z,43.42
2018-04-15T03:29:41.127Z,44.25
2018-04-15T03:30:44.415Z,43.40
2018-04-15T03:31:47.689Z,45.50
2018-04-15T03:32:50.193Z,43.60
2018-04-15T03:33:52.748Z,42.42
2018-04-15T03:34:56.005Z,43.40
2018-04-15T03:35:58.512Z,43.58
2018-04-15T03:37:01.776Z,45.25
2018-04-15T03:38:04.293Z,44.78
2018-04-15T03:39:06.794Z,46.60
2018-04-15T03:40:09.298Z,44.72
2018-04-15T03:41:12.578Z,44.35
2018-04-15T03:42:15.094Z,45.15
2018-04-15T03:43:17.595Z,46.53
2018-04-15T03:44:20.173Z,46.50
2018-04-15T03:45:22.672Z,47.85
2018-04-15T03:46:26.287Z,46.75
2018-04-15T03:47:29.546Z,48.80
2018-04-15T03:48:32.041Z,50.25
2018-04-15T03:49:35.301Z,48.13
2018-04-15T03:50:38.579Z,45.78
2018-04-15T03:51:41.097Z,47.17
2018-04-15T03:52:43.580Z,47.05
2018-04-15T03:53:46.087Z,47.28
2018-04-15T03:54:48.578Z,48.25
2018-04-15T03:55:51.843Z,47.33
2018-04-15T03:56:54.362Z,45.58
2018-04-15T03:57:56.856Z,45.50
2018-04-15T03:58:59.345Z,45.47
2018-04-15T04:00:01.849Z,46.63
2018-04-15T04:01:05.133Z,47.00
2018-04-15T04:02:07.643Z,45.67
2018-04-15T04:03:10.213Z,47.58
2018-04-15T04:04:12.735Z,46.13
2018-04-15T04:05:15.247Z,46.60
2018-04-15T04:06:17.781Z,46.22
2018-04-15T04:07:20.311Z,49.70
2018-04-15T04:08:22.813Z,50.40
2018-04-15T04:09:26.107Z,48.75
2018-04-15T04:10:29.392Z,49.45
2018-04-15T04:11:31.885Z,49.65
2018-04-15T04:12:35.157Z,48.38
2018-04-15T04:13:38.458Z,49.88
2018-04-15T04:14:41.717Z,51.10
2018-04-15T04:15:44.230Z,50.17
2018-04-15T04:16:47.500Z,48.25
2018-04-15T04:18:01.865Z,52.62
2018-04-15T04:19:16.982Z,46.25
2018-04-15T04:20:31.314Z,49.40
2018-04-15T04:21:45.841Z,50.50
2018-04-15T04:23:00.308Z,48.38
2018-04-15T04:24:14.813Z,50.30
2018-04-15T04:25:29.224Z,49.17
2018-04-15T04:26:31.719Z,51.88
2018-04-15T04:27:34.212Z,54.15
2018-04-15T04:28:36.708Z,53.78
2018-04-15T04:29:39.222Z,54.13
2018-04-15T04:30:41.747Z,55.17
2018-04-15T04:31:44.258Z,55.88
2018-04-15T04:32:46.750Z,59.50
2018-04-15T04:33:49.277Z,58.72
2018-04-15T04:34:51.764Z,55.83
2018-04-15T04:35:54.262Z,62.22
2018-04-15T04:36:56.766Z,57.60
2018-04-15T04:37:59.311Z,56.55
2018-04-15T04:39:01.818Z,66.18
2018-04-15T04:40:04.337Z,62.53
2018-04-15T04:41:06.822Z,62.78
2018-04-15T04:42:09.325Z,65.65
2018-04-15T04:43:12.749Z,63.95
2018-04-15T04:44:15.265Z,66.10
2018-04-15T04:45:18.583Z,64.87
2018-04-15T04:46:21.093Z,65.12
2018-04-15T04:47:23.610Z,65.20
2018-04-15T04:48:26.112Z,72.85
2018-04-15T04:49:28.665Z,67.37
2018-04-15T04:50:31.162Z,67.95
2018-04-15T04:51:33.663Z,65.97
2018-04-15T04:52:36.153Z,66.37
2018-04-15T04:53:39.437Z,65.47
2018-04-15T04:54:42.724Z,66.43
2018-04-15T04:55:45.983Z,70.18
2018-04-15T04:56:48.471Z,71.03
2018-04-15T04:57:50.954Z,66.82
2018-04-15T04:58:54.229Z,67.30
2018-04-15T04:59:56.739Z,69.68
2018-04-15T05:00:59.223Z,68.60
2018-04-15T05:02:01.723Z,71.35
2018-04-15T05:03:04.224Z,69.53
2018-04-15T05:04:07.486Z,70.47
2018-04-15T05:05:10.282Z,70.85
2018-04-15T05:06:13.567Z,68.30
2018-04-15T05:07:16.829Z,68.62
2018-04-15T05:08:19.344Z,74.43
2018-04-15T05:09:22.694Z,69.35
2018-04-15T05:10:25.204Z,69.75
2018-04-15T05:11:27.730Z,73.20
2018-04-15T05:12:30.277Z,73.50
2018-04-15T05:13:32.774Z,74.35
2018-04-15T05:14:35.272Z,74.75
2018-04-15T05:15:38.580Z,77.05
2018-04-15T05:16:41.093Z,74.07
2018-04-15T05:17:43.597Z,75.72
2018-04-15T05:18:46.864Z,70.45
2018-04-15T05:19:49.403Z,73.57
2018-04-15T05:20:51.898Z,74.93
2018-04-15T05:21:55.182Z,77.10
2018-04-15T05:22:57.678Z,71.32
2018-04-15T05:24:00.196Z,74.22
2018-04-15T05:25:02.696Z,71.90
2018-04-15T05:26:05.227Z,69.85
2018-04-15T05:27:07.743Z,72.28
2018-04-15T05:28:10.426Z,71.93
2018-04-15T05:29:13.006Z,72.07
2018-04-15T05:30:15.505Z,71.90
2018-04-15T05:31:18.076Z,70.47
2018-04-15T05:32:20.589Z,72.62
2018-04-15T05:33:23.104Z,73.53
2018-04-15T05:34:26.381Z,70.15
2018-04-15T05:35:29.668Z,73.82
2018-04-15T05:36:32.179Z,72.90
2018-04-15T05:37:34.686Z,72.30
2018-04-15T05:38:37.166Z,70.85
2018-04-15T05:39:39.658Z,71.03
2018-04-15T05:40:42.999Z,74.82
2018-04-15T05:41:45.515Z,73.70
2018-04-15T05:42:48.780Z,73.72
2018-04-15T05:43:52.054Z,75.03
2018-04-15T05:44:54.563Z,73.43
2018-04-15T05:45:57.835Z,78.03
2018-04-15T05:47:00.374Z,76.03
2018-04-15T05:48:02.871Z,75.05
2018-04-15T05:49:05.377Z,80.12
2018-04-15T05:50:07.881Z,75.70
2018-04-15T05:51:10.533Z,74.12
2018-04-15T05:52:13.180Z,74.15
2018-04-15T05:53:16.475Z,77.00
2018-04-15T05:54:19.761Z,78.15
2018-04-15T05:55:23.033Z,77.60
2018-04-15T05:56:26.312Z,77.30
2018-04-15T05:57:29.627Z,79.32
2018-04-15T05:58:32.892Z,80.53
2018-04-15T05:59:35.403Z,75.40
2018-04-15T06:00:37.920Z,76.03
2018-04-15T06:01:40.415Z,75.72
2018-04-15T06:02:42.966Z,71.57
2018-04-15T06:03:45.468Z,76.32
2018-04-15T06:04:48.739Z,80.20
2018-04-15T06:05:51.239Z,74.60
2018-04-15T06:06:53.749Z,76.25
2018-04-15T06:07:56.269Z,77.55
2018-04-15T06:08:59.525Z,72.32
2018-04-15T06:10:02.071Z,75.30
2018-04-15T06:11:04.599Z,74.50
2018-04-15T06:12:07.866Z,75.15
2018-04-15T06:13:10.596Z,75.62
2018-04-15T06:14:13.177Z,73.70
2018-04-15T06:15:15.685Z,79.80
2018-04-15T06:16:18.951Z,74.72
2018-04-15T06:17:21.457Z,77.45
2018-04-15T06:18:24.732Z,75.40
2018-04-15T06:19:28.028Z,77.37
2018-04-15T06:20:31.311Z,78.97
2018-04-15T06:21:33.839Z,76.90
2018-04-15T06:22:36.360Z,75.65
2018-04-15T06:23:39.657Z,78.10
2018-04-15T06:24:42.944Z,74.53
2018-04-15T06:25:46.203Z,75.15
2018-04-15T06:26:48.711Z,76.50
2018-04-15T06:27:51.220Z,74.78
2018-04-15T06:28:53.752Z,68.87
2018-04-15T06:29:56.249Z,70.03
2018-04-15T06:30:58.760Z,72.72
2018-04-15T06:32:01.288Z,69.15
2018-04-15T06:33:03.804Z,66.65
2018-04-15T06:34:06.323Z,69.72
2018-04-15T06:35:08.841Z,67.35
2018-04-15T06:36:11.552Z,65.80
2018-04-15T06:37:14.058Z,64.85
2018-04-15T06:38:16.590Z,64.18
2018-04-15T06:39:19.096Z,60.50
2018-04-15T06:40:21.602Z,64.22
2018-04-15T06:41:24.132Z,63.53
2018-04-15T06:42:26.652Z,63.05
2018-04-15T06:43:29.946Z,61.83
2018-04-15T06:44:33.247Z,62.42
2018-04-15T06:45:36.509Z,61.37
2018-04-15T06:46:39.013Z,59.50
2018-04-15T06:47:41.540Z,60.05
2018-04-15T06:48:44.076Z,60.00
2018-04-15T06:49:46.625Z,62.78
2018-04-15T06:50:49.150Z,58.03
2018-04-15T06:51:51.656Z,63.00
2018-04-15T06:52:54.177Z,56.58
2018-04-15T06:53:56.770Z,60.05
2018-04-15T06:54:59.333Z,55.45
2018-04-15T06:56:01.858Z,57.30
2018-04-15T06:57:04.361Z,53.70
2018-04-15T06:58:06.905Z,56.45
2018-04-15T06:59:09.435Z,55.65
2018-04-15T07:00:12.771Z,55.03
2018-04-15T07:01:15.302Z,54.70
2018-04-15T07:02:18.584Z,51.63
2018-04-15T07:03:21.853Z,51.00
2018-04-15T07:04:25.136Z,53.05
2018-04-15T07:05:27.657Z,51.70
2018-04-15T07:06:30.187Z,55.38
2018-04-15T07:07:33.472Z,49.67
2018-04-15T07:08:35.998Z,48.85
2018-04-15T07:09:38.603Z,49.65
2018-04-15T07:10:41.126Z,49.53
2018-04-15T07:11:43.632Z,45.88
2018-04-15T07:12:46.172Z,44.40
2018-04-15T07:13:48.681Z,48.40
2018-04-15T07:14:51.191Z,45.47
2018-04-15T07:15:54.473Z,44.38
2018-04-15T07:16:57.746Z,44.65
2018-04-15T07:18:00.271Z,44.47
2018-04-15T07:19:02.784Z,40.50
2018-04-15T07:20:05.301Z,42.58
2018-04-15T07:21:07.808Z,39.30
2018-04-15T07:22:10.473Z,41.78
2018-04-15T07:23:13.046Z,38.70
2018-04-15T07:24:15.551Z,38.00
2018-04-15T07:25:18.091Z,37.55
2018-04-15T07:26:20.612Z,36.42
2018-04-15T07:27:23.376Z,36.08
2018-04-15T07:28:26.713Z,34.75
2018-04-15T07:29:29.242Z,34.35
2018-04-15T07:30:32.574Z,33.00
2018-04-15T07:31:35.095Z,36.70
2018-04-15T07:32:37.608Z,31.95
2018-04-15T07:33:40.173Z,31.85
2018-04-15T07:34:43.418Z,32.60
2018-04-15T07:35:45.968Z,30.20
2018-04-15T07:36:48.490Z,27.15
2018-04-15T07:37:51.012Z,29.30
2018-04-15T07:38:53.543Z,29.27
2018-04-15T07:39:56.071Z,29.37
2018-04-15T07:40:58.595Z,27.00
2018-04-15T07:42:01.134Z,27.77
2018-04-15T07:43:04.407Z,26.65
2018-04-15T07:44:07.687Z,27.67
2018-04-15T07:45:10.440Z,24.20
2018-04-15T07:46:13.088Z,26.87
2018-04-15T07:47:15.612Z,25.67
2018-04-15T07:48:18.885Z,25.83
2018-04-15T07:49:21.392Z,25.95
2018-04-15T07:50:23.945Z,29.10
2018-04-15T07:51:26.491Z,25.75
2018-04-15T07:52:28.997Z,25.35
2018-04-15T07:53:32.279Z,25.92
2018-04-15T07:54:35.567Z,25.70
2018-04-15T07:55:38.868Z,25.65
2018-04-15T07:56:41.379Z,25.00
2018-04-15T07:57:43.872Z,25.85
2018-04-15T07:58:46.370Z,24.17
2018-04-15T07:59:49.646Z,23.33
2018-04-15T08:00:52.162Z,23.83
2018-04-15T08:01:54.684Z,23.62
2018-04-15T08:02:57.208Z,21.90
2018-04-15T08:03:59.735Z,23.02
2018-04-15T08:05:03.115Z,21.98
2018-04-15T08:06:06.412Z,18.95
2018-04-15T08:07:09.976Z,19.95
2018-04-15T08:08:13.032Z,19.00
2018-04-15T08:09:15.541Z,19.37
2018-04-15T08:10:18.100Z,18.67
2018-04-15T08:11:20.696Z,17.62
2018-04-15T08:12:23.229Z,18.40
2018-04-15T08:13:25.752Z,19.23
2018-04-15T08:14:29.051Z,19.17
2018-04-15T08:15:32.421Z,17.10
2018-04-15T08:16:34.966Z,16.83
2018-04-15T08:17:37.498Z,14.13
2018-04-15T08:18:40.027Z,13.13
2018-04-15T08:19:43.320Z,14.27
2018-04-15T08:20:45.825Z,13.77
2018-04-15T08:21:48.355Z,12.15
2018-04-15T08:22:50.874Z,13.13
2018-04-15T08:23:53.477Z,10.35
2018-04-15T08:24:55.989Z,10.35
2018-04-15T08:25:59.266Z,10.93
2018-04-15T08:27:01.803Z,11.75
2018-04-15T08:28:04.325Z,10.10
2018-04-15T08:29:07.610Z,11.40
2018-04-15T08:30:10.986Z,11.45
2018-04-15T08:31:14.437Z,10.48
2018-04-15T08:32:16.998Z,10.73
2018-04-15T08:33:19.536Z,11.43
2018-04-15T08:34:22.934Z,11.12
2018-04-15T08:35:26.234Z,8.95
2018-04-15T08:36:28.756Z,9.55
2018-04-15T08:37:31.290Z,9.95
2018-04-15T08:38:33.894Z,9.30
2018-04-15T08:39:36.406Z,10.05
2018-04-15T08:40:38.923Z,8.43
2018-04-15T08:41:41.446Z,8.82
2018-04-15T08:42:43.976Z,8.30
2018-04-15T08:43:46.478Z,9.05
2018-04-15T08:44:49.749Z,9.65
2018-04-15T08:45:52.301Z,8.88
2018-04-15T08:46:54.823Z,9.35
2018-04-15T08:47:57.435Z,9.10
2018-04-15T08:49:00.100Z,9.30
2018-04-15T08:50:02.722Z,8.05
2018-04-15T08:51:05.985Z,6.73
2018-04-15T08:52:08.496Z,7.10
2018-04-15T08:53:11.165Z,7.43
2018-04-15T08:54:14.568Z,7.80
2018-04-15T08:55:17.096Z,6.50
2018-04-15T08:56:19.595Z,6.77
2018-04-15T08:57:22.868Z,5.80
2018-04-15T08:58:25.442Z,7.30
2018-04-15T08:59:28.748Z,7.00
2018-04-15T09:00:32.029Z,6.87
2018-04-15T09:01:35.305Z,6.83
2018-04-15T09:02:38.605Z,6.30
2018-04-15T09:03:42.023Z,6.10
2018-04-15T09:04:44.553Z,5.67
2018-04-15T09:05:47.057Z,6.80
2018-04-15T09:06:49.569Z,5.37
2018-04-15T09:07:52.080Z,6.27
2018-04-15T09:08:54.601Z,5.40
2018-04-15T09:09:57.122Z,5.30
2018-04-15T09:11:00.383Z,5.67
2018-04-15T09:12:02.931Z,6.03
2018-04-15T09:13:05.462Z,5.30
2018-04-15T09:14:08.736Z,5.10
2018-04-15T09:15:12.396Z,5.27
2018-04-15T09:16:14.910Z,5.00
2018-04-15T09:17:18.232Z,5.07
2018-04-15T09:18:20.788Z,4.63
2018-04-15T09:19:23.316Z,4.67
2018-04-15T09:20:25.844Z,4.30
2018-04-15T09:21:28.436Z,4.63
2018-04-15T09:22:30.961Z,4.77
2018-04-15T09:23:33.764Z,5.20
2018-04-15T09:24:36.289Z,5.80
2018-04-15T09:25:39.620Z,4.57
2018-04-15T09:26:42.155Z,4.70
2018-04-15T09:27:45.571Z,4.90
2018-04-15T09:28:48.069Z,5.00
2018-04-15T09:29:50.580Z,4.80
2018-04-15T09:30:59.634Z,5.33
2018-04-15T09:32:02.417Z,4.67
2018-04-15T09:33:06.011Z,5.47
2018-04-15T09:34:08.548Z,5.20
2018-04-15T09:35:12.125Z,4.80
2018-04-15T09:36:14.688Z,5.27
2018-04-15T09:37:17.219Z,5.43
2018-04-15T09:38:19.767Z,5.17
2018-04-15T09:39:23.044Z,5.13
2018-04-15T09:40:25.575Z,5.53
2018-04-15T09:41:28.153Z,5.23
2018-04-15T09:42:30.665Z,5.07
2018-04-15T09:43:33.998Z,5.27
2018-04-15T09:44:36.559Z,5.23
2018-04-15T09:45:39.080Z,5.37
2018-04-15T09:46:41.607Z,5.77
2018-04-15T09:47:44.143Z,5.00
2018-04-15T09:48:46.648Z,5.68
2018-04-15T09:49:49.150Z,5.43
2018-04-15T09:50:51.659Z,5.05
2018-04-15T09:51:54.197Z,4.20
2018-04-15T09:52:57.504Z,3.72
2018-04-15T09:54:00.812Z,3.70
2018-04-15T09:55:03.305Z,4.57
2018-04-15T09:56:05.811Z,3.87
2018-04-15T09:57:08.407Z,3.97
2018-04-15T09:58:11.743Z,4.12
2018-04-15T09:59:14.351Z,4.35
2018-04-15T10:00:19.740Z,3.22
2018-04-15T10:01:22.258Z,4.30
2018-04-15T10:02:24.843Z,3.10
2018-04-15T10:03:28.134Z,3.12
2018-04-15T10:04:31.439Z,3.40
2018-04-15T10:05:34.165Z,3.50
2018-04-15T10:06:36.707Z,3.08
2018-04-15T10:07:39.238Z,3.47
2018-04-15T10:08:42.623Z,3.00
2018-04-15T10:09:45.932Z,3.15
2018-04-15T10:10:49.261Z,2.55
2018-04-15T10:11:51.785Z,3.10
2018-04-15T10:12:54.343Z,2.90
2018-04-15T10:13:56.896Z,2.80
2018-04-15T10:14:59.467Z,2.70
2018-04-15T10:16:02.003Z,3.40
2018-04-15T10:17:04.510Z,3.85
2018-04-15T10:18:07.031Z,3.00
2018-04-15T10:19:09.753Z,3.05
2018-04-15T10:20:12.742Z,3.25
2018-04-15T10:21:15.248Z,3.60
2018-04-15T10:22:17.795Z,2.90
2018-04-15T10:23:21.073Z,2.70
2018-04-15T10:24:23.598Z,2.85
2018-04-15T10:25:26.129Z,3.25
2018-04-15T10:26:29.434Z,2.80
2018-04-15T10:27:31.957Z,2.65
2018-04-15T10:28:34.476Z,2.50
2018-04-15T10:29:37.026Z,3.20
2018-04-15T10:30:39.547Z,2.92
2018-04-15T10:31:42.174Z,2.78
2018-04-15T10:32:45.499Z,2.20
2018-04-15T10:33:48.035Z,2.53
2018-04-15T10:34:51.342Z,2.45
2018-04-15T10:35:53.876Z,2.40
2018-04-15T10:36:56.404Z,2.45
2018-04-15T10:37:58.984Z,2.47
2018-04-15T10:39:01.519Z,2.30
2018-04-15T10:40:04.817Z,2.60
2018-04-15T10:41:07.391Z,2.37
2018-04-15T10:42:10.224Z,2.83
2018-04-15T10:43:13.280Z,2.45
2018-04-15T10:44:16.042Z,2.50
2018-04-15T10:45:18.585Z,2.42
2018-04-15T10:46:21.856Z,2.20
2018-04-15T10:47:24.412Z,2.30
2018-04-15T10:48:27.042Z,2.55
2018-04-15T10:49:29.586Z,2.33
2018-04-15T10:50:32.859Z,2.60
2018-04-15T10:51:35.389Z,2.42
2018-04-15T10:52:37.904Z,2.28
2018-04-15T10:53:41.195Z,2.20
2018-04-15T10:56:10.459Z,2.50
2018-04-15T10:57:13.249Z,2.55
2018-04-15T10:58:17.726Z,2.20
2018-04-15T10:59:20.254Z,2.05
2018-04-15T11:00:22.800Z,2.47
2018-04-15T11:01:25.362Z,2.58
2018-04-15T11:02:27.873Z,2.53
2018-04-15T11:03:30.436Z,2.50
2018-04-15T11:04:33.658Z,2.60
2018-04-15T11:05:37.049Z,2.62
2018-04-15T11:06:39.583Z,2.95
2018-04-15T11:07:42.137Z,2.45
2018-04-15T11:08:44.756Z,3.20
2018-04-15T11:09:47.247Z,2.75
2018-04-15T11:10:49.797Z,2.78
2018-04-15T11:11:53.090Z,3.33
2018-04-15T11:12:55.602Z,3.00
2018-04-15T11:13:58.233Z,2.58
2018-04-15T11:15:00.794Z,2.30
2018-04-15T11:16:03.385Z,2.55
2018-04-15T11:17:06.688Z,2.87
2018-04-15T11:18:09.216Z,2.70
2018-04-15T11:19:12.082Z,2.53
2018-04-15T11:20:15.416Z,2.62
2018-04-15T11:21:18.094Z,2.72
2018-04-15T11:22:20.642Z,2.60
2018-04-15T11:23:23.925Z,2.30
2018-04-15T11:24:26.460Z,2.90
2018-04-15T11:25:29.034Z,3.00
2018-04-15T11:26:31.782Z,2.80
2018-04-15T11:27:34.402Z,2.80
2018-04-15T11:28:37.780Z,2.65
2018-04-15T11:29:40.346Z,2.87
2018-04-15T11:30:42.888Z,2.90
2018-04-15T11:31:45.457Z,2.72
2018-04-15T11:32:48.025Z,2.90
2018-04-15T11:33:50.600Z,2.60
2018-04-15T11:34:53.136Z,3.20
2018-04-15T11:35:55.650Z,2.72
2018-04-15T11:36:58.181Z,3.10
2018-04-15T11:38:01.470Z,2.22
2018-04-15T11:39:06.075Z,2.90
2018-04-15T11:40:08.598Z,2.97
2018-04-15T11:41:11.410Z,3.20
2018-04-15T11:42:14.090Z,2.40
2018-04-15T11:43:16.605Z,3.10
2018-04-15T11:44:19.152Z,2.67
2018-04-15T11:45:22.421Z,3.47
2018-04-15T11:46:25.058Z,3.00
2018-04-15T11:47:27.608Z,3.40
2018-04-15T11:48:30.133Z,3.60
2018-04-15T11:49:32.688Z,3.00
2018-04-15T11:50:35.461Z,3.43
2018-04-15T11:51:38.097Z,2.90
2018-04-15T11:52:40.629Z,2.73
2018-04-15T11:53:43.163Z,2.60
2018-04-15T11:54:45.690Z,2.27
2018-04-15T11:55:49.033Z,2.73
2018-04-15T11:56:51.584Z,2.23
2018-04-15T11:57:54.101Z,2.70
2018-04-15T11:58:56.625Z,2.50
2018-04-15T11:59:59.175Z,2.90
2018-04-15T12:01:02.503Z,2.77
2018-04-15T12:02:05.039Z,2.73
2018-04-15T12:03:08.361Z,3.00
2018-04-15T12:04:11.401Z,3.10
2018-04-15T12:05:14.097Z,2.80
2018-04-15T12:06:16.635Z,3.30
2018-04-15T12:07:19.933Z,2.87
2018-04-15T12:08:23.258Z,2.83
2018-04-15T12:09:25.796Z,2.97
2018-04-15T12:10:29.140Z,2.85
2018-04-15T12:11:31.788Z,3.10
2018-04-15T12:12:35.741Z,3.28
2018-04-15T12:13:39.541Z,3.80
2018-04-15T12:14:42.095Z,3.85
2018-04-15T12:15:44.612Z,3.40
2018-04-15T12:16:47.938Z,2.95
2018-04-15T12:17:50.448Z,3.12
2018-04-15T12:18:52.979Z,3.47
2018-04-15T12:19:55.522Z,3.67
2018-04-15T12:20:58.034Z,3.40
2018-04-15T12:22:00.540Z,3.30
2018-04-15T12:23:03.201Z,3.83
2018-04-15T12:24:05.998Z,3.53
2018-04-15T12:25:09.317Z,3.42
2018-04-15T12:26:12.402Z,3.92
2018-04-15T12:27:14.936Z,3.70
2018-04-15T12:28:18.262Z,4.10
2018-04-15T12:29:20.800Z,3.87
2018-04-15T12:30:24.105Z,3.53
2018-04-15T12:31:27.451Z,3.67
2018-04-15T12:32:29.948Z,3.45
2018-04-15T12:33:33.463Z,3.30
2018-04-15T12:34:36.004Z,3.50
2018-04-15T12:35:39.387Z,3.60
2018-04-15T12:36:41.859Z,3.83
2018-04-15T12:37:44.385Z,4.05
2018-04-15T12:38:46.916Z,4.50
2018-04-15T12:39:50.220Z,3.85
2018-04-15T12:40:52.738Z,4.45
2018-04-15T12:41:55.282Z,4.60
2018-04-15T12:42:57.813Z,4.43
2018-04-15T12:44:01.110Z,4.37
2018-04-15T12:45:04.440Z,4.00
2018-04-15T12:46:07.001Z,3.90
2018-04-15T12:47:09.975Z,4.53
2018-04-15T12:48:13.320Z,4.35
2018-04-15T12:49:16.602Z,4.65
2018-04-15T12:50:19.229Z,4.40
2018-04-15T12:51:21.742Z,4.57
2018-04-15T12:52:24.297Z,4.27
2018-04-15T12:53:26.801Z,4.20
2018-04-15T12:54:29.319Z,4.40
2018-04-15T12:55:31.901Z,4.40
2018-04-15T12:56:34.465Z,4.57
2018-04-15T12:57:36.989Z,4.50
2018-04-15T12:58:40.283Z,3.73
2018-04-15T12:59:43.927Z,4.67
2018-04-15T13:00:46.734Z,4.50
2018-04-15T13:01:49.228Z,4.33
2018-04-15T13:02:52.513Z,4.33
2018-04-15T13:03:55.944Z,4.40
2018-04-15T13:04:58.488Z,3.60
2018-04-15T13:06:02.645Z,4.13
2018-04-15T13:07:05.204Z,4.10
2018-04-15T13:08:07.769Z,4.33
2018-04-15T13:09:10.928Z,4.07
2018-04-15T13:10:13.882Z,4.10
2018-04-15T13:11:16.455Z,4.10
2018-04-15T13:12:19.760Z,3.87
2018-04-15T13:13:23.141Z,4.40
2018-04-15T13:14:25.687Z,3.93
2018-04-15T13:15:28.276Z,4.10
2018-04-15T13:16:30.821Z,3.87
2018-04-15T13:17:33.371Z,4.00
2018-04-15T13:18:35.876Z,3.73
2018-04-15T13:19:38.421Z,4.00
2018-04-15T13:20:40.944Z,3.50
2018-04-15T13:21:44.276Z,4.03
2018-04-15T13:22:46.797Z,4.50
2018-04-15T13:23:50.094Z,3.87
2018-04-15T13:24:52.608Z,3.53
2018-04-15T13:25:55.117Z,4.37
2018-04-15T13:26:57.713Z,3.70
2018-04-15T13:28:01.014Z,4.00
2018-04-15T13:29:03.615Z,4.00
2018-04-15T13:30:06.140Z,4.03
2018-04-15T13:31:09.507Z,4.00
2018-04-15T13:32:12.913Z,3.70
2018-04-15T13:33:15.467Z,4.13
2018-04-15T13:34:17.992Z,3.63
2018-04-15T13:35:20.519Z,3.78
2018-04-15T13:36:23.013Z,3.80
2018-04-15T13:37:26.347Z,3.50
2018-04-15T13:38:28.862Z,3.23
2018-04-15T13:39:32.226Z,3.10
2018-04-15T13:40:34.799Z,3.07
2018-04-15T13:41:37.326Z,2.80